sensor_id;sensor_type;location;lat;lon;timestamp;P1;durP1;ratioP1;P2;durP2;ratioP2
1336;SDS011;662;48.814;9.318;2023-06-22T00:02:24;7.40;;;6.60;;
1336;SDS011;662;48.814;9.318;2023-06-22T00:04:50;7.43;;;6.60;;
1336;SDS011;662;48.814;9.318;2023-06-22T00:07:16;7.90;;;7.10;;
1336;SDS011;662;48.814;9.318;2023-06-22T00:09:41;8.90;;;7.73;;
1336;SDS011;662;48.814;9.318;2023-06-22T00:12:07;7.50;;;6.80;;
1336;SDS011;662;48.814;9.318;2023-06-22T00:14:33;8.73;;;7.03;;
1336;SDS011;662;48.814;9.318;2023-06-22T00:16:58;7.27;;;6.30;;
1336;SDS011;662;48.814;9.318;2023-06-22T00:19:24;6.83;;;6.20;;
1336;SDS011;662;48.814;9.318;2023-06-22T00:21:50;7.30;;;6.60;;
1336;SDS011;662;48.814;9.318;2023-06-22T00:24:19;8.40;;;7.17;;
1336;SDS011;662;48.814;9.318;2023-06-22T00:26:45;7.33;;;6.73;;
1336;SDS011;662;48.814;9.318;2023-06-22T00:29:11;7.37;;;6.60;;
1336;SDS011;662;48.814;9.318;2023-06-22T00:31:37;7.60;;;6.90;;
1336;SDS011;662;48.814;9.318;2023-06-22T00:34:02;7.40;;;6.60;;
1336;SDS011;662;48.814;9.318;2023-06-22T00:36:28;7.90;;;7.10;;
1336;SDS011;662;48.814;9.318;2023-06-22T00:38:54;9.67;;;7.40;;
1336;SDS011;662;48.814;9.318;2023-06-22T00:41:19;8.83;;;7.40;;
1336;SDS011;662;48.814;9.318;2023-06-22T00:43:45;7.60;;;6.90;;
1336;SDS011;662;48.814;9.318;2023-06-22T00:46:11;8.50;;;7.60;;
1336;SDS011;662;48.814;9.318;2023-06-22T00:48:37;7.90;;;7.20;;
1336;SDS011;662;48.814;9.318;2023-06-22T00:51:05;7.67;;;6.97;;
1336;SDS011;662;48.814;9.318;2023-06-22T00:53:30;8.87;;;7.40;;
1336;SDS011;662;48.814;9.318;2023-06-22T00:55:59;7.50;;;6.77;;
1336;SDS011;662;48.814;9.318;2023-06-22T00:58:25;8.87;;;7.97;;
1336;SDS011;662;48.814;9.318;2023-06-22T01:00:51;7.90;;;6.97;;
1336;SDS011;662;48.814;9.318;2023-06-22T01:03:17;7.70;;;6.57;;
1336;SDS011;662;48.814;9.318;2023-06-22T01:05:43;7.53;;;6.73;;
1336;SDS011;662;48.814;9.318;2023-06-22T01:08:29;7.13;;;6.43;;
1336;SDS011;662;48.814;9.318;2023-06-22T01:11:19;7.13;;;6.43;;
1336;SDS011;662;48.814;9.318;2023-06-22T01:16:29;7.87;;;7.10;;
1336;SDS011;662;48.814;9.318;2023-06-22T01:18:57;7.93;;;7.13;;
1336;SDS011;662;48.814;9.318;2023-06-22T01:21:43;7.37;;;6.33;;
1336;SDS011;662;48.814;9.318;2023-06-22T01:24:23;7.73;;;6.93;;
1336;SDS011;662;48.814;9.318;2023-06-22T01:29:34;7.70;;;6.90;;
1336;SDS011;662;48.814;9.318;2023-06-22T01:32:02;7.90;;;7.00;;
1336;SDS011;662;48.814;9.318;2023-06-22T01:34:29;7.40;;;6.47;;
1336;SDS011;662;48.814;9.318;2023-06-22T01:36:57;7.90;;;7.00;;
1336;SDS011;662;48.814;9.318;2023-06-22T01:39:25;10.13;;;7.20;;
1336;SDS011;662;48.814;9.318;2023-06-22T01:41:51;8.77;;;7.30;;
1336;SDS011;662;48.814;9.318;2023-06-22T01:44:18;9.30;;;7.53;;
1336;SDS011;662;48.814;9.318;2023-06-22T01:46:44;8.50;;;7.60;;
1336;SDS011;662;48.814;9.318;2023-06-22T01:49:11;8.40;;;6.60;;
1336;SDS011;662;48.814;9.318;2023-06-22T01:51:37;9.33;;;7.90;;
1336;SDS011;662;48.814;9.318;2023-06-22T01:54:03;8.20;;;7.40;;
1336;SDS011;662;48.814;9.318;2023-06-22T01:56:30;9.50;;;7.70;;
1336;SDS011;662;48.814;9.318;2023-06-22T01:59:00;12.30;;;8.23;;
1336;SDS011;662;48.814;9.318;2023-06-22T02:01:31;8.17;;;7.37;;
1336;SDS011;662;48.814;9.318;2023-06-22T02:04:13;8.97;;;7.20;;
1336;SDS011;662;48.814;9.318;2023-06-22T02:06:44;7.90;;;7.20;;
1336;SDS011;662;48.814;9.318;2023-06-22T02:09:14;8.23;;;7.50;;
1336;SDS011;662;48.814;9.318;2023-06-22T02:11:43;8.90;;;7.40;;
1336;SDS011;662;48.814;9.318;2023-06-22T02:14:11;8.90;;;8.03;;
1336;SDS011;662;48.814;9.318;2023-06-22T02:16:37;9.83;;;7.80;;
1336;SDS011;662;48.814;9.318;2023-06-22T02:19:04;10.30;;;8.03;;
1336;SDS011;662;48.814;9.318;2023-06-22T02:21:31;7.83;;;7.03;;
1336;SDS011;662;48.814;9.318;2023-06-22T02:23:57;12.23;;;7.60;;
1336;SDS011;662;48.814;9.318;2023-06-22T02:26:23;11.17;;;7.20;;
1336;SDS011;662;48.814;9.318;2023-06-22T02:28:51;10.37;;;8.17;;
1336;SDS011;662;48.814;9.318;2023-06-22T02:31:16;10.17;;;8.17;;
1336;SDS011;662;48.814;9.318;2023-06-22T02:33:42;8.60;;;7.70;;
1336;SDS011;662;48.814;9.318;2023-06-22T02:36:08;8.80;;;7.63;;
1336;SDS011;662;48.814;9.318;2023-06-22T02:38:37;9.10;;;7.73;;
1336;SDS011;662;48.814;9.318;2023-06-22T02:41:03;8.90;;;7.83;;
1336;SDS011;662;48.814;9.318;2023-06-22T02:43:28;8.00;;;7.20;;
1336;SDS011;662;48.814;9.318;2023-06-22T02:45:54;8.13;;;7.33;;
1336;SDS011;662;48.814;9.318;2023-06-22T02:48:20;8.27;;;7.43;;
1336;SDS011;662;48.814;9.318;2023-06-22T02:50:46;9.50;;;7.40;;
1336;SDS011;662;48.814;9.318;2023-06-22T02:53:12;9.33;;;8.30;;
1336;SDS011;662;48.814;9.318;2023-06-22T02:55:37;8.50;;;7.60;;
1336;SDS011;662;48.814;9.318;2023-06-22T02:58:04;8.17;;;7.13;;
1336;SDS011;662;48.814;9.318;2023-06-22T03:00:30;9.13;;;7.87;;
1336;SDS011;662;48.814;9.318;2023-06-22T03:02:57;9.63;;;7.80;;
1336;SDS011;662;48.814;9.318;2023-06-22T03:05:23;9.23;;;7.97;;
1336;SDS011;662;48.814;9.318;2023-06-22T03:07:49;13.27;;;8.10;;
1336;SDS011;662;48.814;9.318;2023-06-22T03:10:15;10.03;;;7.37;;
1336;SDS011;662;48.814;9.318;2023-06-22T03:12:42;9.60;;;7.97;;
1336;SDS011;662;48.814;9.318;2023-06-22T03:15:09;12.63;;;7.27;;
1336;SDS011;662;48.814;9.318;2023-06-22T03:17:36;8.20;;;7.40;;
1336;SDS011;662;48.814;9.318;2023-06-22T03:20:06;9.60;;;8.10;;
1336;SDS011;662;48.814;9.318;2023-06-22T03:22:37;7.57;;;6.83;;
1336;SDS011;662;48.814;9.318;2023-06-22T03:25:03;8.20;;;7.40;;
1336;SDS011;662;48.814;9.318;2023-06-22T03:27:29;8.80;;;7.90;;
1336;SDS011;662;48.814;9.318;2023-06-22T03:29:56;9.30;;;7.70;;
1336;SDS011;662;48.814;9.318;2023-06-22T03:32:22;8.40;;;7.60;;
1336;SDS011;662;48.814;9.318;2023-06-22T03:34:48;8.60;;;7.07;;
1336;SDS011;662;48.814;9.318;2023-06-22T03:37:14;7.43;;;6.70;;
1336;SDS011;662;48.814;9.318;2023-06-22T03:39:40;8.93;;;7.90;;
1336;SDS011;662;48.814;9.318;2023-06-22T03:42:06;9.60;;;8.47;;
1336;SDS011;662;48.814;9.318;2023-06-22T03:44:33;9.07;;;8.17;;
1336;SDS011;662;48.814;9.318;2023-06-22T03:47:01;8.33;;;7.53;;
1336;SDS011;662;48.814;9.318;2023-06-22T03:49:28;10.53;;;8.20;;
1336;SDS011;662;48.814;9.318;2023-06-22T03:51:54;9.30;;;7.87;;
1336;SDS011;662;48.814;9.318;2023-06-22T03:54:19;9.30;;;8.10;;
1336;SDS011;662;48.814;9.318;2023-06-22T03:56:45;8.10;;;7.30;;
1336;SDS011;662;48.814;9.318;2023-06-22T03:59:11;9.93;;;7.77;;
1336;SDS011;662;48.814;9.318;2023-06-22T04:01:36;9.47;;;7.80;;
1336;SDS011;662;48.814;9.318;2023-06-22T04:04:02;9.27;;;8.37;;
1336;SDS011;662;48.814;9.318;2023-06-22T04:06:27;8.93;;;7.60;;
1336;SDS011;662;48.814;9.318;2023-06-22T04:08:53;10.00;;;8.40;;
1336;SDS011;662;48.814;9.318;2023-06-22T04:11:19;8.90;;;8.10;;
1336;SDS011;662;48.814;9.318;2023-06-22T04:13:45;10.10;;;8.03;;
1336;SDS011;662;48.814;9.318;2023-06-22T04:16:10;9.80;;;8.33;;
1336;SDS011;662;48.814;9.318;2023-06-22T04:18:36;9.43;;;8.20;;
1336;SDS011;662;48.814;9.318;2023-06-22T04:21:02;9.57;;;8.60;;
1336;SDS011;662;48.814;9.318;2023-06-22T04:23:28;8.70;;;7.80;;
1336;SDS011;662;48.814;9.318;2023-06-22T04:25:53;9.13;;;7.70;;
1336;SDS011;662;48.814;9.318;2023-06-22T04:28:21;8.93;;;8.03;;
1336;SDS011;662;48.814;9.318;2023-06-22T04:30:47;8.60;;;7.57;;
1336;SDS011;662;48.814;9.318;2023-06-22T04:33:13;8.33;;;7.23;;
1336;SDS011;662;48.814;9.318;2023-06-22T04:35:44;9.90;;;8.40;;
1336;SDS011;662;48.814;9.318;2023-06-22T04:38:11;8.20;;;7.10;;
1336;SDS011;662;48.814;9.318;2023-06-22T04:40:38;9.13;;;8.23;;
1336;SDS011;662;48.814;9.318;2023-06-22T04:43:05;8.10;;;7.30;;
1336;SDS011;662;48.814;9.318;2023-06-22T04:45:34;8.50;;;7.63;;
1336;SDS011;662;48.814;9.318;2023-06-22T04:48:02;9.17;;;7.63;;
1336;SDS011;662;48.814;9.318;2023-06-22T04:50:29;8.87;;;7.97;;
1336;SDS011;662;48.814;9.318;2023-06-22T04:52:54;8.73;;;7.10;;
1336;SDS011;662;48.814;9.318;2023-06-22T04:55:20;8.70;;;7.60;;
1336;SDS011;662;48.814;9.318;2023-06-22T04:57:46;11.80;;;7.87;;
1336;SDS011;662;48.814;9.318;2023-06-22T05:02:48;8.97;;;6.40;;
1336;SDS011;662;48.814;9.318;2023-06-22T05:05:14;8.30;;;7.03;;
1336;SDS011;662;48.814;9.318;2023-06-22T05:07:41;8.20;;;7.40;;
1336;SDS011;662;48.814;9.318;2023-06-22T05:10:09;8.67;;;6.40;;
1336;SDS011;662;48.814;9.318;2023-06-22T05:12:36;8.40;;;7.30;;
1336;SDS011;662;48.814;9.318;2023-06-22T05:15:02;8.93;;;7.03;;
1336;SDS011;662;48.814;9.318;2023-06-22T05:17:27;8.77;;;6.83;;
1336;SDS011;662;48.814;9.318;2023-06-22T05:19:53;10.67;;;8.20;;
1336;SDS011;662;48.814;9.318;2023-06-22T05:22:20;8.43;;;7.53;;
1336;SDS011;662;48.814;9.318;2023-06-22T05:24:45;8.37;;;7.50;;
1336;SDS011;662;48.814;9.318;2023-06-22T05:27:11;8.20;;;7.07;;
1336;SDS011;662;48.814;9.318;2023-06-22T05:29:37;7.93;;;6.97;;
1336;SDS011;662;48.814;9.318;2023-06-22T05:32:03;8.70;;;6.30;;
1336;SDS011;662;48.814;9.318;2023-06-22T05:34:29;7.73;;;6.93;;
1336;SDS011;662;48.814;9.318;2023-06-22T05:36:55;8.63;;;6.90;;
1336;SDS011;662;48.814;9.318;2023-06-22T05:39:20;7.87;;;6.70;;
1336;SDS011;662;48.814;9.318;2023-06-22T05:41:46;10.20;;;8.00;;
1336;SDS011;662;48.814;9.318;2023-06-22T05:44:12;8.17;;;7.17;;
1336;SDS011;662;48.814;9.318;2023-06-22T05:46:41;7.33;;;6.37;;
1336;SDS011;662;48.814;9.318;2023-06-22T05:49:12;9.43;;;7.30;;
1336;SDS011;662;48.814;9.318;2023-06-22T05:51:38;8.70;;;7.10;;
1336;SDS011;662;48.814;9.318;2023-06-22T05:54:03;8.63;;;7.63;;
1336;SDS011;662;48.814;9.318;2023-06-22T05:56:30;7.63;;;6.93;;
1336;SDS011;662;48.814;9.318;2023-06-22T05:58:56;7.70;;;6.87;;
1336;SDS011;662;48.814;9.318;2023-06-22T06:01:21;8.00;;;7.13;;
1336;SDS011;662;48.814;9.318;2023-06-22T06:03:47;8.53;;;6.67;;
1336;SDS011;662;48.814;9.318;2023-06-22T06:06:15;9.83;;;6.77;;
1336;SDS011;662;48.814;9.318;2023-06-22T06:08:41;10.00;;;6.97;;
1336;SDS011;662;48.814;9.318;2023-06-22T06:11:07;7.90;;;6.80;;
1336;SDS011;662;48.814;9.318;2023-06-22T06:13:32;8.10;;;6.77;;
1336;SDS011;662;48.814;9.318;2023-06-22T06:15:58;8.10;;;7.30;;
1336;SDS011;662;48.814;9.318;2023-06-22T06:18:24;8.67;;;6.50;;
1336;SDS011;662;48.814;9.318;2023-06-22T06:20:50;7.20;;;6.50;;
1336;SDS011;662;48.814;9.318;2023-06-22T06:23:15;6.50;;;5.90;;
1336;SDS011;662;48.814;9.318;2023-06-22T06:25:41;7.77;;;6.63;;
1336;SDS011;662;48.814;9.318;2023-06-22T06:28:07;10.40;;;7.30;;
1336;SDS011;662;48.814;9.318;2023-06-22T06:30:32;7.67;;;6.20;;
1336;SDS011;662;48.814;9.318;2023-06-22T06:32:58;8.33;;;6.93;;
1336;SDS011;662;48.814;9.318;2023-06-22T06:35:24;8.00;;;6.10;;
1336;SDS011;662;48.814;9.318;2023-06-22T06:37:50;8.27;;;6.33;;
1336;SDS011;662;48.814;9.318;2023-06-22T06:40:16;8.00;;;6.70;;
1336;SDS011;662;48.814;9.318;2023-06-22T06:42:44;6.70;;;5.90;;
1336;SDS011;662;48.814;9.318;2023-06-22T06:45:11;7.53;;;6.73;;
1336;SDS011;662;48.814;9.318;2023-06-22T06:47:41;7.10;;;6.37;;
1336;SDS011;662;48.814;9.318;2023-06-22T06:50:07;7.40;;;6.63;;
1336;SDS011;662;48.814;9.318;2023-06-22T06:52:33;6.50;;;5.87;;
1336;SDS011;662;48.814;9.318;2023-06-22T06:54:59;7.27;;;5.57;;
1336;SDS011;662;48.814;9.318;2023-06-22T06:57:28;7.47;;;6.00;;
1336;SDS011;662;48.814;9.318;2023-06-22T06:59:55;6.70;;;6.00;;
1336;SDS011;662;48.814;9.318;2023-06-22T07:02:22;6.73;;;6.03;;
1336;SDS011;662;48.814;9.318;2023-06-22T07:04:48;6.53;;;5.50;;
1336;SDS011;662;48.814;9.318;2023-06-22T07:07:14;6.90;;;6.13;;
1336;SDS011;662;48.814;9.318;2023-06-22T07:09:40;6.43;;;5.27;;
1336;SDS011;662;48.814;9.318;2023-06-22T07:12:06;7.20;;;5.60;;
1336;SDS011;662;48.814;9.318;2023-06-22T07:14:31;5.77;;;5.27;;
1336;SDS011;662;48.814;9.318;2023-06-22T07:16:57;7.80;;;6.00;;
1336;SDS011;662;48.814;9.318;2023-06-22T07:19:24;5.63;;;4.90;;
1336;SDS011;662;48.814;9.318;2023-06-22T07:21:51;6.07;;;5.10;;
1336;SDS011;662;48.814;9.318;2023-06-22T07:24:17;5.80;;;5.30;;
1336;SDS011;662;48.814;9.318;2023-06-22T07:26:44;6.67;;;6.07;;
1336;SDS011;662;48.814;9.318;2023-06-22T07:29:11;7.97;;;5.10;;
1336;SDS011;662;48.814;9.318;2023-06-22T07:31:37;5.67;;;5.13;;
1336;SDS011;662;48.814;9.318;2023-06-22T07:34:05;5.10;;;4.60;;
1336;SDS011;662;48.814;9.318;2023-06-22T07:36:30;9.47;;;4.73;;
1336;SDS011;662;48.814;9.318;2023-06-22T07:38:56;4.60;;;4.20;;
1336;SDS011;662;48.814;9.318;2023-06-22T07:41:22;6.90;;;4.67;;
1336;SDS011;662;48.814;9.318;2023-06-22T07:43:47;4.70;;;4.20;;
1336;SDS011;662;48.814;9.318;2023-06-22T07:46:13;7.33;;;4.70;;
1336;SDS011;662;48.814;9.318;2023-06-22T07:48:39;4.87;;;4.40;;
1336;SDS011;662;48.814;9.318;2023-06-22T07:51:06;4.90;;;4.47;;
1336;SDS011;662;48.814;9.318;2023-06-22T07:53:32;7.80;;;4.20;;
1336;SDS011;662;48.814;9.318;2023-06-22T07:55:58;4.93;;;4.47;;
1336;SDS011;662;48.814;9.318;2023-06-22T07:58:23;6.30;;;4.87;;
1336;SDS011;662;48.814;9.318;2023-06-22T08:00:49;4.63;;;4.20;;
1336;SDS011;662;48.814;9.318;2023-06-22T08:03:15;4.30;;;3.90;;
1336;SDS011;662;48.814;9.318;2023-06-22T08:05:41;5.60;;;4.43;;
1336;SDS011;662;48.814;9.318;2023-06-22T08:08:06;5.40;;;4.50;;
1336;SDS011;662;48.814;9.318;2023-06-22T08:10:32;8.30;;;5.17;;
1336;SDS011;662;48.814;9.318;2023-06-22T08:12:58;5.03;;;4.47;;
1336;SDS011;662;48.814;9.318;2023-06-22T08:15:23;7.10;;;4.27;;
1336;SDS011;662;48.814;9.318;2023-06-22T08:17:51;4.57;;;4.17;;
1336;SDS011;662;48.814;9.318;2023-06-22T08:20:17;4.97;;;4.00;;
1336;SDS011;662;48.814;9.318;2023-06-22T08:22:43;7.03;;;4.83;;
1336;SDS011;662;48.814;9.318;2023-06-22T08:25:09;6.00;;;4.33;;
1336;SDS011;662;48.814;9.318;2023-06-22T08:27:35;5.57;;;4.20;;
1336;SDS011;662;48.814;9.318;2023-06-22T08:30:01;5.07;;;4.07;;
1336;SDS011;662;48.814;9.318;2023-06-22T08:32:28;5.60;;;4.90;;
1336;SDS011;662;48.814;9.318;2023-06-22T08:34:54;4.90;;;4.03;;
1336;SDS011;662;48.814;9.318;2023-06-22T08:37:21;5.50;;;4.77;;
1336;SDS011;662;48.814;9.318;2023-06-22T08:39:55;4.20;;;3.80;;
1336;SDS011;662;48.814;9.318;2023-06-22T08:42:21;4.50;;;4.10;;
1336;SDS011;662;48.814;9.318;2023-06-22T08:44:49;4.63;;;3.77;;
1336;SDS011;662;48.814;9.318;2023-06-22T08:47:15;6.33;;;4.57;;
1336;SDS011;662;48.814;9.318;2023-06-22T08:49:40;5.93;;;4.30;;
1336;SDS011;662;48.814;9.318;2023-06-22T08:52:06;5.13;;;4.03;;
1336;SDS011;662;48.814;9.318;2023-06-22T08:54:32;7.17;;;4.43;;
1336;SDS011;662;48.814;9.318;2023-06-22T08:56:59;5.73;;;3.50;;
1336;SDS011;662;48.814;9.318;2023-06-22T08:59:28;5.83;;;4.20;;
1336;SDS011;662;48.814;9.318;2023-06-22T09:01:54;5.97;;;3.87;;
1336;SDS011;662;48.814;9.318;2023-06-22T09:04:20;5.40;;;4.60;;
1336;SDS011;662;48.814;9.318;2023-06-22T09:06:47;6.53;;;4.30;;
1336;SDS011;662;48.814;9.318;2023-06-22T09:09:13;7.07;;;4.40;;
1336;SDS011;662;48.814;9.318;2023-06-22T09:11:39;5.30;;;4.00;;
1336;SDS011;662;48.814;9.318;2023-06-22T09:14:05;10.20;;;4.57;;
1336;SDS011;662;48.814;9.318;2023-06-22T09:16:31;8.20;;;4.87;;
1336;SDS011;662;48.814;9.318;2023-06-22T09:18:57;5.90;;;4.20;;
1336;SDS011;662;48.814;9.318;2023-06-22T09:21:23;5.43;;;4.20;;
1336;SDS011;662;48.814;9.318;2023-06-22T09:23:49;8.07;;;4.30;;
1336;SDS011;662;48.814;9.318;2023-06-22T09:26:18;6.13;;;4.47;;
1336;SDS011;662;48.814;9.318;2023-06-22T09:28:44;5.53;;;4.80;;
1336;SDS011;662;48.814;9.318;2023-06-22T09:31:09;8.83;;;4.87;;
1336;SDS011;662;48.814;9.318;2023-06-22T09:33:35;4.90;;;4.40;;
1336;SDS011;662;48.814;9.318;2023-06-22T09:36:03;6.23;;;4.20;;
1336;SDS011;662;48.814;9.318;2023-06-22T09:38:38;8.00;;;4.30;;
1336;SDS011;662;48.814;9.318;2023-06-22T09:41:04;5.60;;;4.30;;
1336;SDS011;662;48.814;9.318;2023-06-22T09:43:32;5.33;;;4.83;;
1336;SDS011;662;48.814;9.318;2023-06-22T09:46:01;6.43;;;4.53;;
1336;SDS011;662;48.814;9.318;2023-06-22T09:48:28;5.00;;;4.43;;
1336;SDS011;662;48.814;9.318;2023-06-22T09:50:57;4.87;;;4.40;;
1336;SDS011;662;48.814;9.318;2023-06-22T09:53:22;6.70;;;4.50;;
1336;SDS011;662;48.814;9.318;2023-06-22T09:55:48;7.30;;;5.00;;
1336;SDS011;662;48.814;9.318;2023-06-22T09:58:14;4.40;;;3.73;;
1336;SDS011;662;48.814;9.318;2023-06-22T10:00:39;6.03;;;4.50;;
1336;SDS011;662;48.814;9.318;2023-06-22T10:03:06;6.60;;;4.40;;
1336;SDS011;662;48.814;9.318;2023-06-22T10:05:32;7.07;;;4.30;;
1336;SDS011;662;48.814;9.318;2023-06-22T10:07:58;5.87;;;5.00;;
1336;SDS011;662;48.814;9.318;2023-06-22T10:10:24;5.73;;;4.70;;
1336;SDS011;662;48.814;9.318;2023-06-22T10:12:56;4.77;;;4.30;;
1336;SDS011;662;48.814;9.318;2023-06-22T10:15:23;8.00;;;5.17;;
1336;SDS011;662;48.814;9.318;2023-06-22T10:17:49;8.47;;;4.67;;
1336;SDS011;662;48.814;9.318;2023-06-22T10:20:15;5.27;;;4.57;;
1336;SDS011;662;48.814;9.318;2023-06-22T10:22:42;4.67;;;4.23;;
1336;SDS011;662;48.814;9.318;2023-06-22T10:25:10;6.20;;;4.87;;
1336;SDS011;662;48.814;9.318;2023-06-22T10:27:37;6.83;;;4.90;;
1336;SDS011;662;48.814;9.318;2023-06-22T10:30:07;6.00;;;5.00;;
1336;SDS011;662;48.814;9.318;2023-06-22T10:32:33;5.73;;;4.43;;
1336;SDS011;662;48.814;9.318;2023-06-22T10:34:59;5.47;;;4.60;;
1336;SDS011;662;48.814;9.318;2023-06-22T10:37:25;4.87;;;4.17;;
1336;SDS011;662;48.814;9.318;2023-06-22T10:39:50;4.40;;;3.60;;
1336;SDS011;662;48.814;9.318;2023-06-22T10:42:16;4.37;;;3.97;;
1336;SDS011;662;48.814;9.318;2023-06-22T10:44:42;5.30;;;4.20;;
1336;SDS011;662;48.814;9.318;2023-06-22T10:47:09;6.20;;;4.17;;
1336;SDS011;662;48.814;9.318;2023-06-22T10:49:37;4.90;;;4.10;;
1336;SDS011;662;48.814;9.318;2023-06-22T10:52:03;5.70;;;3.97;;
1336;SDS011;662;48.814;9.318;2023-06-22T10:54:29;5.40;;;4.17;;
1336;SDS011;662;48.814;9.318;2023-06-22T10:56:55;8.60;;;4.10;;
1336;SDS011;662;48.814;9.318;2023-06-22T10:59:20;4.57;;;3.97;;
1336;SDS011;662;48.814;9.318;2023-06-22T11:01:48;5.00;;;3.60;;
1336;SDS011;662;48.814;9.318;2023-06-22T11:04:14;6.30;;;4.33;;
1336;SDS011;662;48.814;9.318;2023-06-22T11:06:40;8.00;;;4.90;;
1336;SDS011;662;48.814;9.318;2023-06-22T11:09:06;6.67;;;3.67;;
1336;SDS011;662;48.814;9.318;2023-06-22T11:11:32;5.93;;;4.13;;
1336;SDS011;662;48.814;9.318;2023-06-22T11:13:58;7.57;;;4.67;;
1336;SDS011;662;48.814;9.318;2023-06-22T11:16:23;8.53;;;5.10;;
1336;SDS011;662;48.814;9.318;2023-06-22T11:18:49;8.93;;;4.80;;
1336;SDS011;662;48.814;9.318;2023-06-22T11:21:14;6.27;;;4.17;;
1336;SDS011;662;48.814;9.318;2023-06-22T11:23:41;7.67;;;4.57;;
1336;SDS011;662;48.814;9.318;2023-06-22T11:26:10;4.30;;;3.90;;
1336;SDS011;662;48.814;9.318;2023-06-22T11:28:35;6.83;;;4.20;;
1336;SDS011;662;48.814;9.318;2023-06-22T11:31:01;6.00;;;4.40;;
1336;SDS011;662;48.814;9.318;2023-06-22T11:33:27;5.30;;;4.77;;
1336;SDS011;662;48.814;9.318;2023-06-22T11:35:53;5.40;;;4.13;;
1336;SDS011;662;48.814;9.318;2023-06-22T11:38:18;5.00;;;4.17;;
1336;SDS011;662;48.814;9.318;2023-06-22T11:40:44;5.00;;;4.43;;
1336;SDS011;662;48.814;9.318;2023-06-22T11:43:09;4.90;;;4.40;;
1336;SDS011;662;48.814;9.318;2023-06-22T11:45:35;6.97;;;4.10;;
1336;SDS011;662;48.814;9.318;2023-06-22T11:48:01;4.67;;;4.17;;
1336;SDS011;662;48.814;9.318;2023-06-22T11:50:26;6.90;;;4.20;;
1336;SDS011;662;48.814;9.318;2023-06-22T11:52:55;8.13;;;4.53;;
1336;SDS011;662;48.814;9.318;2023-06-22T11:55:20;11.40;;;4.07;;
1336;SDS011;662;48.814;9.318;2023-06-22T11:57:53;5.13;;;4.53;;
1336;SDS011;662;48.814;9.318;2023-06-22T12:00:23;5.47;;;4.50;;
1336;SDS011;662;48.814;9.318;2023-06-22T12:02:50;5.30;;;4.63;;
1336;SDS011;662;48.814;9.318;2023-06-22T12:05:19;4.67;;;4.20;;
1336;SDS011;662;48.814;9.318;2023-06-22T12:07:46;9.17;;;4.83;;
1336;SDS011;662;48.814;9.318;2023-06-22T12:10:11;7.80;;;5.40;;
1336;SDS011;662;48.814;9.318;2023-06-22T12:12:37;7.00;;;4.83;;
1336;SDS011;662;48.814;9.318;2023-06-22T12:15:03;5.33;;;4.70;;
1336;SDS011;662;48.814;9.318;2023-06-22T12:17:29;7.07;;;5.07;;
1336;SDS011;662;48.814;9.318;2023-06-22T12:19:55;7.03;;;5.10;;
1336;SDS011;662;48.814;9.318;2023-06-22T12:22:21;7.40;;;5.43;;
1336;SDS011;662;48.814;9.318;2023-06-22T12:24:47;6.40;;;5.10;;
1336;SDS011;662;48.814;9.318;2023-06-22T12:27:12;5.23;;;4.70;;
1336;SDS011;662;48.814;9.318;2023-06-22T12:29:41;6.83;;;5.67;;
1336;SDS011;662;48.814;9.318;2023-06-22T12:32:07;5.50;;;5.00;;
1336;SDS011;662;48.814;9.318;2023-06-22T12:34:32;7.87;;;5.40;;
1336;SDS011;662;48.814;9.318;2023-06-22T12:36:58;8.13;;;5.00;;
1336;SDS011;662;48.814;9.318;2023-06-22T12:39:24;7.37;;;4.83;;
1336;SDS011;662;48.814;9.318;2023-06-22T12:41:49;9.53;;;5.90;;
1336;SDS011;662;48.814;9.318;2023-06-22T12:44:15;7.73;;;6.13;;
1336;SDS011;662;48.814;9.318;2023-06-22T12:46:41;8.90;;;4.97;;
1336;SDS011;662;48.814;9.318;2023-06-22T12:49:06;8.37;;;5.50;;
1336;SDS011;662;48.814;9.318;2023-06-22T12:51:32;6.43;;;4.83;;
1336;SDS011;662;48.814;9.318;2023-06-22T12:53:59;8.27;;;6.20;;
1336;SDS011;662;48.814;9.318;2023-06-22T12:56:24;8.10;;;5.73;;
1336;SDS011;662;48.814;9.318;2023-06-22T12:58:50;7.13;;;5.03;;
1336;SDS011;662;48.814;9.318;2023-06-22T13:01:15;6.03;;;4.80;;
1336;SDS011;662;48.814;9.318;2023-06-22T13:03:43;8.33;;;5.60;;
1336;SDS011;662;48.814;9.318;2023-06-22T13:06:08;5.90;;;5.30;;
1336;SDS011;662;48.814;9.318;2023-06-22T13:08:34;7.87;;;5.10;;
1336;SDS011;662;48.814;9.318;2023-06-22T13:11:00;10.73;;;5.07;;
1336;SDS011;662;48.814;9.318;2023-06-22T13:13:25;5.43;;;4.80;;
1336;SDS011;662;48.814;9.318;2023-06-22T13:15:52;10.70;;;5.93;;
1336;SDS011;662;48.814;9.318;2023-06-22T13:18:19;11.33;;;5.50;;
1336;SDS011;662;48.814;9.318;2023-06-22T13:20:45;8.27;;;6.23;;
1336;SDS011;662;48.814;9.318;2023-06-22T13:23:11;5.57;;;4.70;;
1336;SDS011;662;48.814;9.318;2023-06-22T13:25:37;9.13;;;5.53;;
1336;SDS011;662;48.814;9.318;2023-06-22T13:28:03;8.20;;;5.50;;
1336;SDS011;662;48.814;9.318;2023-06-22T13:30:28;6.30;;;5.70;;
1336;SDS011;662;48.814;9.318;2023-06-22T13:32:55;8.23;;;5.10;;
1336;SDS011;662;48.814;9.318;2023-06-22T13:35:21;6.00;;;4.97;;
1336;SDS011;662;48.814;9.318;2023-06-22T13:37:47;8.73;;;5.93;;
1336;SDS011;662;48.814;9.318;2023-06-22T13:40:12;6.63;;;5.03;;
1336;SDS011;662;48.814;9.318;2023-06-22T13:42:38;8.90;;;5.10;;
1336;SDS011;662;48.814;9.318;2023-06-22T13:45:04;10.20;;;5.00;;
1336;SDS011;662;48.814;9.318;2023-06-22T13:47:34;9.60;;;5.20;;
1336;SDS011;662;48.814;9.318;2023-06-22T13:50:00;8.00;;;5.37;;
1336;SDS011;662;48.814;9.318;2023-06-22T13:52:25;6.30;;;4.90;;
1336;SDS011;662;48.814;9.318;2023-06-22T13:54:51;7.07;;;6.00;;
1336;SDS011;662;48.814;9.318;2023-06-22T13:57:17;6.97;;;4.83;;
1336;SDS011;662;48.814;9.318;2023-06-22T13:59:42;8.40;;;5.10;;
1336;SDS011;662;48.814;9.318;2023-06-22T14:02:08;6.23;;;5.40;;
1336;SDS011;662;48.814;9.318;2023-06-22T14:04:34;7.73;;;4.70;;
1336;SDS011;662;48.814;9.318;2023-06-22T14:06:59;5.50;;;4.73;;
1336;SDS011;662;48.814;9.318;2023-06-22T14:09:25;7.30;;;5.10;;
1336;SDS011;662;48.814;9.318;2023-06-22T14:11:53;5.93;;;4.80;;
1336;SDS011;662;48.814;9.318;2023-06-22T14:14:21;7.50;;;5.10;;
1336;SDS011;662;48.814;9.318;2023-06-22T14:16:46;8.90;;;4.90;;
1336;SDS011;662;48.814;9.318;2023-06-22T14:19:14;5.27;;;4.53;;
1336;SDS011;662;48.814;9.318;2023-06-22T14:21:42;8.83;;;5.00;;
1336;SDS011;662;48.814;9.318;2023-06-22T14:24:08;7.47;;;4.83;;
1336;SDS011;662;48.814;9.318;2023-06-22T14:26:33;7.83;;;5.50;;
1336;SDS011;662;48.814;9.318;2023-06-22T14:28:59;5.47;;;4.60;;
1336;SDS011;662;48.814;9.318;2023-06-22T14:31:24;5.70;;;4.77;;
1336;SDS011;662;48.814;9.318;2023-06-22T14:33:50;6.23;;;5.27;;
1336;SDS011;662;48.814;9.318;2023-06-22T14:36:16;6.43;;;4.70;;
1336;SDS011;662;48.814;9.318;2023-06-22T14:38:42;5.40;;;3.60;;
1336;SDS011;662;48.814;9.318;2023-06-22T14:41:08;7.57;;;4.53;;
1336;SDS011;662;48.814;9.318;2023-06-22T14:43:34;5.10;;;4.53;;
1336;SDS011;662;48.814;9.318;2023-06-22T14:46:00;5.63;;;3.60;;
1336;SDS011;662;48.814;9.318;2023-06-22T14:48:26;11.90;;;4.67;;
1336;SDS011;662;48.814;9.318;2023-06-22T14:50:52;9.13;;;3.80;;
1336;SDS011;662;48.814;9.318;2023-06-22T14:53:19;6.77;;;4.70;;
1336;SDS011;662;48.814;9.318;2023-06-22T14:55:44;7.60;;;3.60;;
1336;SDS011;662;48.814;9.318;2023-06-22T14:58:10;6.83;;;3.90;;
1336;SDS011;662;48.814;9.318;2023-06-22T15:00:37;5.13;;;3.93;;
1336;SDS011;662;48.814;9.318;2023-06-22T15:03:03;3.60;;;2.90;;
1336;SDS011;662;48.814;9.318;2023-06-22T15:05:32;5.83;;;3.73;;
1336;SDS011;662;48.814;9.318;2023-06-22T15:07:57;6.57;;;4.27;;
1336;SDS011;662;48.814;9.318;2023-06-22T15:10:26;5.53;;;3.40;;
1336;SDS011;662;48.814;9.318;2023-06-22T15:12:51;6.47;;;3.73;;
1336;SDS011;662;48.814;9.318;2023-06-22T15:15:17;5.93;;;3.33;;
1336;SDS011;662;48.814;9.318;2023-06-22T15:17:43;8.23;;;4.20;;
1336;SDS011;662;48.814;9.318;2023-06-22T15:20:11;5.40;;;3.47;;
1336;SDS011;662;48.814;9.318;2023-06-22T15:22:37;6.60;;;3.80;;
1336;SDS011;662;48.814;9.318;2023-06-22T15:25:02;4.33;;;2.70;;
1336;SDS011;662;48.814;9.318;2023-06-22T15:27:28;9.50;;;4.30;;
1336;SDS011;662;48.814;9.318;2023-06-22T15:29:54;4.80;;;3.00;;
1336;SDS011;662;48.814;9.318;2023-06-22T15:32:20;7.60;;;3.10;;
1336;SDS011;662;48.814;9.318;2023-06-22T15:34:45;9.50;;;3.80;;